Time;durP1;ratioP1;P1;durP2;ratioP2;P2;SDS_P1;SDS_P2;PMS_P1;PMS_P2;Temp;Humidity;BMP_temperature;BMP_pressure;BME280_temperature;BME280_humidity;BME280_pressure;Samples;Min_cycle;Max_cycle;Signal;HPM_P1;HPM_P2
2023/04/12 00:02:01;;;;;;;4.63;1.87;;;;;;;;;;5012310;28;20687;-68
2023/04/12 00:04:27;;;;;;;6.53;1.80;;;;;;;;;;5011263;28;20262;-68
2023/04/12 00:06:53;;;;;;;5.73;1.80;;;;;;;;;;5011844;28;20215;-68
2023/04/12 00:09:18;;;;;;;2.37;1.50;;;;;;;;;;5010868;28;20178;-68
2023/04/12 00:11:44;;;;;;;5.40;1.80;;;;;;;;;;5013238;28;20186;-68
2023/04/12 00:14:09;;;;;;;5.23;1.83;;;;;;;;;;5017241;28;20183;-68
2023/04/12 00:16:35;;;;;;;5.33;2.20;;;;;;;;;;5014420;28;20671;-68
2023/04/12 00:19:02;;;;;;;10.60;2.20;;;;;;;;;;5012736;28;20175;-68
2023/04/12 00:21:27;;;;;;;5.27;1.70;;;;;;;;;;5010099;28;20186;-68
2023/04/12 00:23:53;;;;;;;4.97;1.97;;;;;;;;;;5012217;28;20167;-68
2023/04/12 00:26:20;;;;;;;4.97;1.60;;;;;;;;;;5010174;28;20528;-68
2023/04/12 00:28:46;;;;;;;4.73;1.43;;;;;;;;;;5011412;28;20306;-69
2023/04/12 00:31:11;;;;;;;3.90;1.63;;;;;;;;;;5011753;28;20187;-68
2023/04/12 00:33:36;;;;;;;4.00;1.50;;;;;;;;;;5011049;28;20673;-69
2023/04/12 00:36:01;;;;;;;5.30;1.90;;;;;;;;;;5009932;28;20699;-68
2023/04/12 00:38:26;;;;;;;2.00;1.37;;;;;;;;;;5009741;28;20645;-68
2023/04/12 00:40:52;;;;;;;1.80;1.17;;;;;;;;;;5012961;28;20222;-68
2023/04/12 00:43:17;;;;;;;3.63;1.30;;;;;;;;;;5012342;28;20175;-68
2023/04/12 00:45:43;;;;;;;2.93;1.20;;;;;;;;;;5011689;28;20199;-68
2023/04/12 00:48:09;;;;;;;5.60;1.63;;;;;;;;;;5012534;28;20206;-68
2023/04/12 00:50:34;;;;;;;3.53;1.73;;;;;;;;;;5012375;28;20550;-68
2023/04/12 00:53:00;;;;;;;3.90;1.60;;;;;;;;;;5008059;28;20175;-68
2023/04/12 00:55:25;;;;;;;2.63;1.30;;;;;;;;;;5012852;28;20689;-68
2023/04/12 00:57:50;;;;;;;3.17;1.20;;;;;;;;;;5013710;28;20657;-68
2023/04/12 01:00:16;;;;;;;1.20;1.00;;;;;;;;;;5012208;28;20182;-68
2023/04/12 01:02:45;;;;;;;3.03;0.93;;;;;;;;;;5011913;28;20183;-68
2023/04/12 01:05:13;;;;;;;3.77;0.80;;;;;;;;;;5011878;28;20685;-69
2023/04/12 01:07:59;;;;;;;3.07;1.00;;;;;;;;;;5011375;28;20198;-69
2023/04/12 01:10:27;;;;;;;3.87;1.67;;;;;;;;;;5014623;28;20643;-68
2023/04/12 01:13:22;;;;;;;1.33;0.83;;;;;;;;;;5006843;28;20167;-68
2023/04/12 01:15:55;;;;;;;3.23;0.93;;;;;;;;;;5001588;28;20579;-69
2023/04/12 01:18:22;;;;;;;3.70;1.67;;;;;;;;;;5013518;28;20210;-69
2023/04/12 01:20:53;;;;;;;2.93;1.10;;;;;;;;;;5007942;28;20640;-69
2023/04/12 01:23:38;;;;;;;4.73;1.23;;;;;;;;;;5015895;28;20178;-68
2023/04/12 01:26:09;;;;;;;3.37;1.47;;;;;;;;;;5009973;28;20201;-68
2023/04/12 01:28:37;;;;;;;2.07;1.27;;;;;;;;;;5011350;28;20199;-68
2023/04/12 01:31:03;;;;;;;4.93;1.13;;;;;;;;;;5010907;28;20181;-68
2023/04/12 01:33:30;;;;;;;1.53;1.07;;;;;;;;;;5014268;28;20167;-68
2023/04/12 01:35:56;;;;;;;3.63;1.53;;;;;;;;;;5006540;28;20282;-68
2023/04/12 01:38:22;;;;;;;2.13;1.20;;;;;;;;;;5013261;28;20538;-68
2023/04/12 01:40:47;;;;;;;2.13;1.30;;;;;;;;;;5009867;28;20213;-68
2023/04/12 01:43:14;;;;;;;3.83;1.47;;;;;;;;;;5010604;28;20621;-68
2023/04/12 01:45:40;;;;;;;6.00;1.57;;;;;;;;;;5014531;28;20197;-67
2023/04/12 01:48:06;;;;;;;2.63;1.60;;;;;;;;;;5025870;28;20277;-68
2023/04/12 01:51:04;;;;;;;5.20;1.63;;;;;;;;;;5011824;28;20274;-69
2023/04/12 01:53:44;;;;;;;1.70;1.23;;;;;;;;;;4963347;28;20241;-69
2023/04/12 01:56:10;;;;;;;5.63;1.77;;;;;;;;;;5013613;28;20217;-69
2023/04/12 01:58:36;;;;;;;3.03;1.50;;;;;;;;;;5014544;28;20179;-69
2023/04/12 02:01:02;;;;;;;5.33;1.47;;;;;;;;;;5013569;28;20274;-69
2023/04/12 02:03:29;;;;;;;2.23;1.23;;;;;;;;;;5013757;28;20258;-69
2023/04/12 02:05:55;;;;;;;5.60;1.20;;;;;;;;;;5013381;28;20761;-69
2023/04/12 02:08:20;;;;;;;4.30;1.60;;;;;;;;;;5013357;28;20318;-68
2023/04/12 02:10:46;;;;;;;3.33;1.47;;;;;;;;;;5012903;28;20266;-68
2023/04/12 02:13:11;;;;;;;5.50;1.50;;;;;;;;;;5013105;28;20213;-68
2023/04/12 02:15:37;;;;;;;2.30;1.20;;;;;;;;;;5012923;28;20295;-68
2023/04/12 02:18:02;;;;;;;1.97;1.60;;;;;;;;;;5017559;28;20187;-68
2023/04/12 02:20:28;;;;;;;8.83;1.67;;;;;;;;;;5010810;28;20273;-68
2023/04/12 02:22:53;;;;;;;3.77;1.60;;;;;;;;;;5013263;28;20194;-68
2023/04/12 02:25:18;;;;;;;2.73;1.80;;;;;;;;;;5016555;28;20212;-67
2023/04/12 02:27:45;;;;;;;2.53;1.63;;;;;;;;;;5015863;28;20702;-68
2023/04/12 02:30:11;;;;;;;7.43;2.03;;;;;;;;;;5013046;28;20187;-68
2023/04/12 02:32:45;;;;;;;1.67;1.40;;;;;;;;;;5011917;28;20182;-68
2023/04/12 02:35:11;;;;;;;3.37;1.60;;;;;;;;;;5012799;28;20178;-69
2023/04/12 02:37:37;;;;;;;5.20;1.87;;;;;;;;;;5015363;28;20182;-67
2023/04/12 02:40:06;;;;;;;2.77;1.47;;;;;;;;;;5017127;28;20554;-67
2023/04/12 02:42:31;;;;;;;3.20;1.63;;;;;;;;;;5015414;28;20194;-67
2023/04/12 02:44:56;;;;;;;2.07;1.30;;;;;;;;;;5014369;28;20186;-68
2023/04/12 02:47:27;;;;;;;1.57;1.30;;;;;;;;;;5014357;28;20241;-68
2023/04/12 02:49:52;;;;;;;6.60;1.80;;;;;;;;;;5014950;28;20550;-68
2023/04/12 02:52:17;;;;;;;3.27;1.77;;;;;;;;;;5012843;28;20183;-68
2023/04/12 02:54:42;;;;;;;6.03;1.67;;;;;;;;;;5012142;28;20175;-68
2023/04/12 02:57:07;;;;;;;3.97;1.73;;;;;;;;;;5013426;28;20199;-68
2023/04/12 02:59:33;;;;;;;7.37;1.63;;;;;;;;;;5012946;28;20548;-69
2023/04/12 03:01:58;;;;;;;3.73;1.60;;;;;;;;;;5011852;28;20266;-67
2023/04/12 03:04:28;;;;;;;3.33;1.63;;;;;;;;;;5009117;28;20210;-68
2023/04/12 03:06:53;;;;;;;2.83;1.33;;;;;;;;;;4974990;23;1081572;-77
2023/04/12 03:09:19;;;;;;;5.63;2.03;;;;;;;;;;4993707;28;20276;-74
2023/04/12 03:11:45;;;;;;;6.10;1.70;;;;;;;;;;4994660;28;20180;-74
2023/04/12 03:14:10;;;;;;;4.07;1.60;;;;;;;;;;4997025;28;20184;-76
2023/04/12 03:16:35;;;;;;;4.10;1.60;;;;;;;;;;5006141;28;20738;-75
2023/04/12 03:19:01;;;;;;;3.90;1.83;;;;;;;;;;5026224;28;20233;-74
2023/04/12 03:21:27;;;;;;;2.97;1.83;;;;;;;;;;5016290;28;20194;-74
2023/04/12 03:23:52;;;;;;;3.60;2.43;;;;;;;;;;5017047;28;20175;-76
2023/04/12 03:26:19;;;;;;;2.67;1.77;;;;;;;;;;5016145;28;20203;-76
2023/04/12 03:28:45;;;;;;;3.53;2.00;;;;;;;;;;5021373;28;20279;-73
2023/04/12 03:31:11;;;;;;;4.00;2.50;;;;;;;;;;5013574;28;20266;-75
2023/04/12 03:33:36;;;;;;;3.40;1.70;;;;;;;;;;5021496;28;20186;-76
2023/04/12 03:36:02;;;;;;;2.87;1.87;;;;;;;;;;5015333;28;20253;-75
2023/04/12 03:38:27;;;;;;;2.87;1.90;;;;;;;;;;5017770;28;20599;-73
2023/04/12 03:40:52;;;;;;;3.07;1.70;;;;;;;;;;5015160;28;20560;-74
2023/04/12 03:43:17;;;;;;;2.90;1.70;;;;;;;;;;5015514;28;20190;-73
2023/04/12 03:45:43;;;;;;;3.30;1.73;;;;;;;;;;5013106;28;20226;-73
2023/04/12 03:48:10;;;;;;;5.17;1.77;;;;;;;;;;5013082;28;20195;-73
2023/04/12 03:50:42;;;;;;;3.97;2.03;;;;;;;;;;5026526;28;20300;-73
2023/04/12 03:53:08;;;;;;;4.13;2.40;;;;;;;;;;5021623;28;20171;-76
2023/04/12 03:55:33;;;;;;;4.13;1.97;;;;;;;;;;5014229;28;20160;-76
2023/04/12 03:57:58;;;;;;;3.43;2.03;;;;;;;;;;5015336;28;20175;-78
2023/04/12 04:00:23;;;;;;;3.93;2.03;;;;;;;;;;5023822;28;20261;-76
2023/04/12 04:02:49;;;;;;;3.47;2.60;;;;;;;;;;5020318;28;20173;-75
2023/04/12 04:05:14;;;;;;;5.47;2.30;;;;;;;;;;5018940;28;20556;-73
2023/04/12 04:07:39;;;;;;;3.77;2.23;;;;;;;;;;5013505;28;20681;-73
2023/04/12 04:10:05;;;;;;;4.27;1.97;;;;;;;;;;5013490;28;20221;-74
2023/04/12 04:12:30;;;;;;;4.00;2.40;;;;;;;;;;5012832;28;20266;-74
2023/04/12 04:14:56;;;;;;;4.97;2.77;;;;;;;;;;5014963;28;20186;-74
2023/04/12 04:17:21;;;;;;;2.63;2.03;;;;;;;;;;5013323;28;20199;-74
2023/04/12 04:19:46;;;;;;;4.17;1.87;;;;;;;;;;5014099;28;20229;-74
2023/04/12 04:22:12;;;;;;;1.90;1.60;;;;;;;;;;5014090;28;20648;-75
2023/04/12 04:24:38;;;;;;;2.40;2.10;;;;;;;;;;5020232;28;20183;-75
2023/04/12 04:27:04;;;;;;;2.30;2.10;;;;;;;;;;5017748;28;20633;-75
2023/04/12 04:29:30;;;;;;;4.23;2.00;;;;;;;;;;5012778;28;20218;-75
2023/04/12 04:31:56;;;;;;;3.10;2.13;;;;;;;;;;5018919;28;20175;-74
2023/04/12 04:34:22;;;;;;;3.37;2.40;;;;;;;;;;5018099;28;20257;-75
2023/04/12 04:36:47;;;;;;;5.07;2.53;;;;;;;;;;5019949;28;20672;-75
2023/04/12 04:39:13;;;;;;;7.00;2.30;;;;;;;;;;5020838;28;20193;-75
2023/04/12 04:41:38;;;;;;;8.70;2.50;;;;;;;;;;5012464;28;20186;-75
2023/04/12 04:44:08;;;;;;;4.53;1.87;;;;;;;;;;5024964;28;20188;-75
2023/04/12 04:46:35;;;;;;;3.30;2.00;;;;;;;;;;5015937;28;20198;-75
2023/04/12 04:49:01;;;;;;;1.97;1.63;;;;;;;;;;5010923;28;20265;-76
2023/04/12 04:51:26;;;;;;;1.90;1.70;;;;;;;;;;5013756;28;20178;-76
2023/04/12 04:53:51;;;;;;;3.93;1.97;;;;;;;;;;5012777;28;20183;-76
2023/04/12 04:56:16;;;;;;;2.43;2.07;;;;;;;;;;5011905;28;20229;-76
2023/04/12 04:58:42;;;;;;;2.40;1.83;;;;;;;;;;5012305;28;20213;-76
2023/04/12 05:01:07;;;;;;;3.37;1.70;;;;;;;;;;5012785;28;20182;-76
2023/04/12 05:03:33;;;;;;;2.53;1.63;;;;;;;;;;5023282;28;20170;-76
2023/04/12 05:05:58;;;;;;;6.57;2.00;;;;;;;;;;5023341;28;20213;-77
2023/04/12 05:08:24;;;;;;;3.93;1.83;;;;;;;;;;5012593;28;20199;-76
2023/04/12 05:10:52;;;;;;;4.10;2.00;;;;;;;;;;5014102;28;20632;-78
2023/04/12 05:13:17;;;;;;;2.67;2.00;;;;;;;;;;5024735;28;20232;-77
2023/04/12 05:15:42;;;;;;;2.10;1.63;;;;;;;;;;5032092;28;20203;-77
2023/04/12 05:18:08;;;;;;;4.20;2.07;;;;;;;;;;5012199;28;20179;-77
2023/04/12 05:20:33;;;;;;;2.83;2.17;;;;;;;;;;5016871;28;20190;-78
2023/04/12 05:22:58;;;;;;;3.87;1.90;;;;;;;;;;5016076;28;20182;-77
2023/04/12 05:25:23;;;;;;;6.03;2.20;;;;;;;;;;5016441;28;20185;-77
2023/04/12 05:27:48;;;;;;;2.50;1.80;;;;;;;;;;5019071;28;20651;-77
2023/04/12 05:30:14;;;;;;;5.67;1.60;;;;;;;;;;5013942;28;20171;-77
2023/04/12 05:32:39;;;;;;;2.40;2.17;;;;;;;;;;5015365;28;20669;-78
2023/04/12 05:35:05;;;;;;;3.37;2.40;;;;;;;;;;5018540;28;20246;-77
2023/04/12 05:37:30;;;;;;;3.23;1.97;;;;;;;;;;5026309;28;20213;-77
2023/04/12 05:39:56;;;;;;;3.13;2.17;;;;;;;;;;5016179;28;20661;-77
2023/04/12 05:42:21;;;;;;;7.43;2.57;;;;;;;;;;5016762;28;20270;-77
2023/04/12 05:44:47;;;;;;;3.77;2.03;;;;;;;;;;5024309;28;20224;-77
2023/04/12 05:47:12;;;;;;;5.70;2.77;;;;;;;;;;5016254;28;20252;-78
2023/04/12 05:49:38;;;;;;;2.97;2.23;;;;;;;;;;5018672;28;20167;-80
2023/04/12 05:52:04;;;;;;;2.97;2.30;;;;;;;;;;5047946;28;20167;-77
2023/04/12 05:54:29;;;;;;;3.03;2.50;;;;;;;;;;5039943;28;20177;-79
2023/04/12 05:56:55;;;;;;;4.53;2.33;;;;;;;;;;5040155;28;20198;-80
2023/04/12 05:59:21;;;;;;;3.87;2.77;;;;;;;;;;5021517;28;20644;-77
2023/04/12 06:01:46;;;;;;;5.43;2.47;;;;;;;;;;5018535;28;20170;-77
2023/04/12 06:04:11;;;;;;;4.73;2.90;;;;;;;;;;5030254;28;20167;-78
2023/04/12 06:06:36;;;;;;;4.70;3.13;;;;;;;;;;5022315;28;20328;-78
2023/04/12 06:09:03;;;;;;;4.17;3.13;;;;;;;;;;5030401;28;20201;-77
2023/04/12 06:11:28;;;;;;;10.33;3.47;;;;;;;;;;5017234;28;20554;-78
2023/04/12 06:13:54;;;;;;;7.40;3.20;;;;;;;;;;5024204;28;20175;-80
2023/04/12 06:16:19;;;;;;;4.67;3.13;;;;;;;;;;5025738;28;20226;-80
2023/04/12 06:18:44;;;;;;;5.40;3.50;;;;;;;;;;5022891;28;20549;-78
2023/04/12 06:21:10;;;;;;;8.60;3.53;;;;;;;;;;5025474;28;20175;-79
2023/04/12 06:23:35;;;;;;;6.83;3.70;;;;;;;;;;5019557;28;20210;-78
2023/04/12 06:26:01;;;;;;;7.30;4.13;;;;;;;;;;5020136;28;20739;-78
2023/04/12 06:28:26;;;;;;;7.67;3.70;;;;;;;;;;5019874;28;20802;-80
2023/04/12 06:30:52;;;;;;;7.90;3.70;;;;;;;;;;5024981;28;20158;-78
2023/04/12 06:33:17;;;;;;;5.50;4.17;;;;;;;;;;5019200;28;20225;-78
2023/04/12 06:35:42;;;;;;;6.23;3.70;;;;;;;;;;5021282;28;20191;-80
2023/04/12 06:38:08;;;;;;;13.17;3.60;;;;;;;;;;5028726;28;20179;-78
2023/04/12 06:40:33;;;;;;;7.50;3.80;;;;;;;;;;5023453;28;20204;-79
2023/04/12 06:42:58;;;;;;;6.97;3.50;;;;;;;;;;5027600;28;20182;-78
2023/04/12 06:45:23;;;;;;;4.93;3.53;;;;;;;;;;5019311;28;20179;-78
2023/04/12 06:47:49;;;;;;;8.17;4.30;;;;;;;;;;5023547;28;20199;-78
2023/04/12 06:50:14;;;;;;;8.43;4.27;;;;;;;;;;5019930;28;20194;-78
2023/04/12 06:52:39;;;;;;;6.20;3.80;;;;;;;;;;5024597;28;20175;-79
2023/04/12 06:55:06;;;;;;;8.40;3.67;;;;;;;;;;5021447;28;20182;-78
2023/04/12 06:57:31;;;;;;;9.53;3.67;;;;;;;;;;5023015;28;20198;-77
2023/04/12 06:59:56;;;;;;;6.30;3.97;;;;;;;;;;5018609;28;20561;-80
2023/04/12 07:02:21;;;;;;;12.07;3.37;;;;;;;;;;5028580;28;20205;-78
2023/04/12 07:04:50;;;;;;;6.00;3.60;;;;;;;;;;5027648;28;20291;-78
2023/04/12 07:07:15;;;;;;;9.20;3.83;;;;;;;;;;5019535;28;20721;-78
2023/04/12 07:09:41;;;;;;;5.50;3.60;;;;;;;;;;5016037;28;20266;-79
2023/04/12 07:12:07;;;;;;;7.20;3.30;;;;;;;;;;5017417;28;20214;-79
2023/04/12 07:14:32;;;;;;;9.57;4.00;;;;;;;;;;5036053;28;20170;-79
2023/04/12 07:16:57;;;;;;;13.47;4.07;;;;;;;;;;5019816;28;20203;-79
2023/04/12 07:19:22;;;;;;;8.33;4.27;;;;;;;;;;5027419;28;20658;-80
2023/04/12 07:21:48;;;;;;;15.10;4.70;;;;;;;;;;5026993;28;20171;-79
2023/04/12 07:24:13;;;;;;;7.00;3.67;;;;;;;;;;5019804;28;20198;-80
2023/04/12 07:26:38;;;;;;;6.57;4.50;;;;;;;;;;5020166;28;20248;-80
2023/04/12 07:29:03;;;;;;;10.57;3.83;;;;;;;;;;5027281;28;20225;-80
2023/04/12 07:31:32;;;;;;;12.27;4.17;;;;;;;;;;5025694;28;20175;-80
2023/04/12 07:33:57;;;;;;;7.27;3.27;;;;;;;;;;5025881;28;20186;-81
2023/04/12 07:36:22;;;;;;;14.40;3.57;;;;;;;;;;5021305;28;20198;-80
2023/04/12 07:38:48;;;;;;;8.73;3.20;;;;;;;;;;5021377;28;20179;-80
2023/04/12 07:41:13;;;;;;;10.87;3.10;;;;;;;;;;5024169;28;20190;-79
2023/04/12 07:43:38;;;;;;;8.10;2.60;;;;;;;;;;5022767;28;20182;-79
2023/04/12 07:46:07;;;;;;;10.80;2.70;;;;;;;;;;5019179;28;20588;-80
2023/04/12 07:48:32;;;;;;;9.83;3.23;;;;;;;;;;5023626;28;20289;-80
2023/04/12 07:50:57;;;;;;;13.93;3.03;;;;;;;;;;5021992;28;20672;-78
2023/04/12 07:53:23;;;;;;;9.37;2.60;;;;;;;;;;5028534;28;20271;-79
2023/04/12 07:55:49;;;;;;;11.43;2.87;;;;;;;;;;5016312;28;20210;-78
2023/04/12 07:58:15;;;;;;;11.23;2.30;;;;;;;;;;5023852;28;20602;-80
2023/04/12 08:00:41;;;;;;;18.40;3.03;;;;;;;;;;5022201;28;20179;-80
2023/04/12 08:03:06;;;;;;;18.83;4.33;;;;;;;;;;5025935;28;20204;-80
2023/04/12 08:05:31;;;;;;;13.23;2.83;;;;;;;;;;5022633;28;20167;-80
2023/04/12 08:07:56;;;;;;;16.27;3.30;;;;;;;;;;5028728;28;20217;-79
2023/04/12 08:10:21;;;;;;;13.73;2.22;;;;;;;;;;5034239;28;20175;-82
2023/04/12 08:12:47;;;;;;;14.35;3.13;;;;;;;;;;5031374;28;20648;-79
2023/04/12 08:15:12;;;;;;;13.93;3.20;;;;;;;;;;5022793;28;20210;-79
2023/04/12 08:17:37;;;;;;;25.52;3.20;;;;;;;;;;5018540;28;20199;-81
2023/04/12 08:20:03;;;;;;;12.07;2.67;;;;;;;;;;5023819;28;20206;-80
2023/04/12 08:22:29;;;;;;;9.87;2.50;;;;;;;;;;5027431;28;20269;-81
2023/04/12 08:24:54;;;;;;;15.20;3.33;;;;;;;;;;5026249;28;20182;-81
2023/04/12 08:27:19;;;;;;;9.03;2.23;;;;;;;;;;5026846;28;20273;-80
2023/04/12 08:29:45;;;;;;;7.50;2.13;;;;;;;;;;5022211;28;20178;-80
2023/04/12 08:32:11;;;;;;;14.00;3.43;;;;;;;;;;5028799;28;20185;-84
2023/04/12 08:34:36;;;;;;;14.30;2.90;;;;;;;;;;5022974;28;20222;-81
2023/04/12 08:37:02;;;;;;;15.75;3.10;;;;;;;;;;5019860;28;20201;-81
2023/04/12 08:39:27;;;;;;;14.90;3.10;;;;;;;;;;5035771;28;20609;-80
2023/04/12 08:41:53;;;;;;;13.02;2.83;;;;;;;;;;5023927;28;20175;-80
2023/04/12 08:44:25;;;;;;;12.90;2.20;;;;;;;;;;5023731;28;20177;-81
2023/04/12 08:46:51;;;;;;;14.65;2.50;;;;;;;;;;5016143;28;20190;-82
2023/04/12 08:49:17;;;;;;;12.27;2.63;;;;;;;;;;5028450;28;20279;-81
2023/04/12 08:51:43;;;;;;;14.15;2.55;;;;;;;;;;5022602;28;20197;-82
2023/04/12 08:54:09;;;;;;;12.65;2.85;;;;;;;;;;5016222;28;20660;-81
2023/04/12 08:56:35;;;;;;;14.05;3.00;;;;;;;;;;5028918;28;20249;-85
2023/04/12 08:59:01;;;;;;;10.40;2.85;;;;;;;;;;5016386;28;20559;-80
2023/04/12 09:01:26;;;;;;;11.05;2.20;;;;;;;;;;5019388;28;20577;-80
2023/04/12 09:03:51;;;;;;;14.93;2.92;;;;;;;;;;5026838;28;20182;-81
2023/04/12 09:06:16;;;;;;;12.23;2.70;;;;;;;;;;5023149;23;20233;-68
2023/04/12 09:08:55;;;;;;;10.15;2.80;;;;;;;;;;5001338;28;20203;-69
2023/04/12 09:11:21;;;;;;;14.88;2.30;;;;;;;;;;5010719;28;20178;-68
2023/04/12 09:13:46;;;;;;;8.88;2.30;;;;;;;;;;5004831;28;20175;-68
2023/04/12 09:16:11;;;;;;;9.68;2.63;;;;;;;;;;5008193;28;20201;-68
2023/04/12 09:18:49;;;;;;;11.43;2.92;;;;;;;;;;4996666;28;20202;-68
2023/04/12 09:21:14;;;;;;;10.18;2.13;;;;;;;;;;4994856;28;20656;-68
2023/04/12 09:23:39;;;;;;;12.55;2.75;;;;;;;;;;4994001;28;20261;-68
2023/04/12 09:26:05;;;;;;;4.75;1.83;;;;;;;;;;4992457;28;20693;-68
2023/04/12 09:28:31;;;;;;;11.57;2.95;;;;;;;;;;4988883;28;20230;-69
2023/04/12 09:30:57;;;;;;;9.93;1.88;;;;;;;;;;4997596;28;20179;-69
2023/04/12 09:33:31;;;;;;;6.47;1.98;;;;;;;;;;4992772;28;20179;-69
2023/04/12 09:36:01;;;;;;;10.32;2.00;;;;;;;;;;4987636;28;20290;-69
2023/04/12 09:38:26;;;;;;;11.05;1.95;;;;;;;;;;4987895;28;20266;-69
2023/04/12 09:40:53;;;;;;;12.32;3.15;;;;;;;;;;4993891;28;20267;-69
2023/04/12 09:43:18;;;;;;;11.40;2.45;;;;;;;;;;4994879;28;20221;-68
2023/04/12 09:45:44;;;;;;;12.13;2.22;;;;;;;;;;4994661;28;20175;-68
2023/04/12 09:48:17;;;;;;;11.85;2.28;;;;;;;;;;4999371;28;20756;-69
2023/04/12 09:50:44;;;;;;;11.40;2.30;;;;;;;;;;4997368;28;20183;-67
2023/04/12 09:53:14;;;;;;;6.97;1.92;;;;;;;;;;4999654;28;20172;-68
2023/04/12 09:55:40;;;;;;;9.20;2.10;;;;;;;;;;4992821;28;20590;-68
2023/04/12 09:58:05;;;;;;;8.32;2.13;;;;;;;;;;4996565;28;20182;-67
2023/04/12 10:00:32;;;;;;;8.27;2.40;;;;;;;;;;4992397;28;20199;-68
2023/04/12 10:02:58;;;;;;;11.32;2.13;;;;;;;;;;4992165;28;20180;-68
2023/04/12 10:05:26;;;;;;;9.70;2.53;;;;;;;;;;4990942;28;20230;-68
2023/04/12 10:07:52;;;;;;;8.13;1.70;;;;;;;;;;4989426;28;20274;-68
2023/04/12 10:10:17;;;;;;;8.82;2.20;;;;;;;;;;4993211;28;20184;-68
2023/04/12 10:12:44;;;;;;;16.13;2.45;;;;;;;;;;4993237;28;20654;-67
2023/04/12 10:15:15;;;;;;;13.35;2.60;;;;;;;;;;4996443;28;20559;-68
2023/04/12 10:17:44;;;;;;;8.30;2.58;;;;;;;;;;4996146;28;20342;-67
2023/04/12 10:20:09;;;;;;;10.15;2.50;;;;;;;;;;4998952;28;20279;-68
2023/04/12 10:22:37;;;;;;;12.80;2.35;;;;;;;;;;4987693;28;20388;-67
2023/04/12 10:25:03;;;;;;;7.82;1.90;;;;;;;;;;4996708;28;20659;-68
2023/04/12 10:27:29;;;;;;;6.75;2.10;;;;;;;;;;4990299;28;20235;-67
2023/04/12 10:30:15;;;;;;;9.77;2.42;;;;;;;;;;4993470;28;20180;-68
2023/04/12 10:32:40;;;;;;;16.63;4.00;;;;;;;;;;4994133;28;20547;-67
2023/04/12 10:35:07;;;;;;;8.63;2.28;;;;;;;;;;4994293;28;20172;-67
2023/04/12 10:37:51;;;;;;;7.88;2.35;;;;;;;;;;5006694;28;20231;-68
2023/04/12 10:40:18;;;;;;;8.50;1.88;;;;;;;;;;4992905;28;20672;-67
2023/04/12 10:42:43;;;;;;;8.93;2.45;;;;;;;;;;4998574;28;20329;-67
2023/04/12 10:45:27;;;;;;;12.10;2.22;;;;;;;;;;4992050;28;20723;-68
2023/04/12 10:47:53;;;;;;;8.32;2.90;;;;;;;;;;4995823;28;20211;-67
2023/04/12 10:50:26;;;;;;;10.15;3.65;;;;;;;;;;4993755;28;20222;-67
2023/04/12 10:53:12;;;;;;;8.85;2.15;;;;;;;;;;4999133;28;20164;-68
2023/04/12 10:55:41;;;;;;;5.57;1.50;;;;;;;;;;4986059;28;20172;-68
2023/04/12 10:58:06;;;;;;;7.38;1.52;;;;;;;;;;4995794;28;20659;-68
2023/04/12 11:00:50;;;;;;;10.70;1.90;;;;;;;;;;5002566;28;20257;-68
2023/04/12 11:03:17;;;;;;;5.72;1.90;;;;;;;;;;4992560;28;20184;-68
2023/04/12 11:05:55;;;;;;;3.13;1.20;;;;;;;;;;4995228;28;20207;-68
2023/04/12 11:08:22;;;;;;;11.70;1.60;;;;;;;;;;4995196;28;20203;-67
2023/04/12 11:10:48;;;;;;;7.78;1.77;;;;;;;;;;4993793;28;20167;-67
2023/04/12 11:13:14;;;;;;;5.20;1.77;;;;;;;;;;5002447;28;20533;-68
2023/04/12 11:15:40;;;;;;;6.22;2.15;;;;;;;;;;4992654;28;20180;-68
2023/04/12 11:18:05;;;;;;;6.10;1.75;;;;;;;;;;4996176;28;20245;-68
2023/04/12 11:20:32;;;;;;;6.28;1.90;;;;;;;;;;5001713;28;20672;-69
2023/04/12 11:22:57;;;;;;;4.47;1.30;;;;;;;;;;5000722;28;20523;-68
2023/04/12 11:25:23;;;;;;;5.70;1.15;;;;;;;;;;5001262;28;20186;-68
2023/04/12 11:27:50;;;;;;;7.95;2.17;;;;;;;;;;4998936;28;20211;-69
2023/04/12 11:30:15;;;;;;;6.22;1.10;;;;;;;;;;4996703;28;20331;-68
2023/04/12 11:32:43;;;;;;;8.45;1.30;;;;;;;;;;4998259;28;20198;-68
2023/04/12 11:35:08;;;;;;;11.98;2.08;;;;;;;;;;4995108;28;20187;-68
2023/04/12 11:37:34;;;;;;;7.95;1.60;;;;;;;;;;5001660;28;20676;-68
2023/04/12 11:39:59;;;;;;;9.55;1.50;;;;;;;;;;4997888;28;20274;-68
2023/04/12 11:42:25;;;;;;;8.55;1.50;;;;;;;;;;4998236;28;20251;-68
2023/04/12 11:44:51;;;;;;;7.65;2.08;;;;;;;;;;4991139;28;20290;-68
2023/04/12 11:47:18;;;;;;;5.97;1.20;;;;;;;;;;4995663;28;20685;-68
2023/04/12 11:49:44;;;;;;;7.03;1.25;;;;;;;;;;4997514;28;20175;-68
2023/04/12 11:52:09;;;;;;;9.02;1.52;;;;;;;;;;5001898;28;20179;-68
2023/04/12 11:54:34;;;;;;;7.88;1.58;;;;;;;;;;4993865;28;20168;-68
2023/04/12 11:56:59;;;;;;;4.53;1.23;;;;;;;;;;4992859;28;20206;-68
2023/04/12 11:59:32;;;;;;;3.95;1.58;;;;;;;;;;4999765;28;20191;-68
2023/04/12 12:01:58;;;;;;;4.50;0.80;;;;;;;;;;4997508;28;20184;-68
2023/04/12 12:04:24;;;;;;;3.35;0.70;;;;;;;;;;4995705;28;20234;-68
2023/04/12 12:06:49;;;;;;;2.22;0.63;;;;;;;;;;4994474;28;20689;-68
2023/04/12 12:09:15;;;;;;;4.28;1.42;;;;;;;;;;4991932;28;20213;-68
2023/04/12 12:11:40;;;;;;;3.28;1.13;;;;;;;;;;4993605;28;20222;-68
2023/04/12 12:14:07;;;;;;;7.47;1.25;;;;;;;;;;4996825;28;20669;-68
2023/04/12 12:16:32;;;;;;;12.10;1.13;;;;;;;;;;4994978;28;20208;-68
2023/04/12 12:18:57;;;;;;;3.15;0.80;;;;;;;;;;4992278;28;20183;-67
2023/04/12 12:21:25;;;;;;;3.20;0.98;;;;;;;;;;4993951;28;20183;-67
2023/04/12 12:23:50;;;;;;;5.43;1.38;;;;;;;;;;4998343;28;20641;-68
2023/04/12 12:26:23;;;;;;;6.82;1.15;;;;;;;;;;4990327;28;20200;-67
2023/04/12 12:28:49;;;;;;;2.35;1.20;;;;;;;;;;4992363;28;20199;-67
2023/04/12 12:31:17;;;;;;;2.80;0.80;;;;;;;;;;4990020;28;20637;-70
2023/04/12 12:33:42;;;;;;;3.15;1.10;;;;;;;;;;4994275;28;20214;-67
2023/04/12 12:36:08;;;;;;;3.78;0.70;;;;;;;;;;4991966;28;20231;-67
2023/04/12 12:38:34;;;;;;;2.63;0.73;;;;;;;;;;4991089;28;20184;-68
2023/04/12 12:41:12;;;;;;;4.38;0.70;;;;;;;;;;4994243;28;20179;-68
2023/04/12 12:43:42;;;;;;;3.00;0.80;;;;;;;;;;4986672;28;20238;-68
2023/04/12 12:46:07;;;;;;;5.13;0.85;;;;;;;;;;4990972;28;20210;-68
2023/04/12 12:48:37;;;;;;;3.70;0.65;;;;;;;;;;4990985;28;20195;-67
2023/04/12 12:51:02;;;;;;;2.90;0.70;;;;;;;;;;4994191;28;20175;-67
2023/04/12 12:53:28;;;;;;;6.00;0.95;;;;;;;;;;4992539;28;20319;-68
2023/04/12 12:55:53;;;;;;;3.25;0.82;;;;;;;;;;4993216;28;20318;-68
2023/04/12 12:58:18;;;;;;;3.70;1.00;;;;;;;;;;4995364;28;20183;-68
2023/04/12 13:00:43;;;;;;;2.35;0.47;;;;;;;;;;4990248;28;20170;-68
2023/04/12 13:03:08;;;;;;;2.05;0.68;;;;;;;;;;4990603;28;20242;-68
2023/04/12 13:05:34;;;;;;;2.78;0.93;;;;;;;;;;4999816;28;20226;-68
2023/04/12 13:07:59;;;;;;;4.63;1.25;;;;;;;;;;4990382;28;20261;-67
2023/04/12 13:10:25;;;;;;;2.30;1.10;;;;;;;;;;4999317;28;20203;-68
2023/04/12 13:12:51;;;;;;;4.07;0.95;;;;;;;;;;4997700;28;20171;-67
2023/04/12 13:15:16;;;;;;;3.78;1.13;;;;;;;;;;4992099;28;20602;-67
2023/04/12 13:17:41;;;;;;;4.80;1.17;;;;;;;;;;4999438;28;20211;-67
2023/04/12 13:20:08;;;;;;;3.25;0.80;;;;;;;;;;4992194;28;20634;-67
2023/04/12 13:22:33;;;;;;;5.63;1.00;;;;;;;;;;4993933;28;20210;-67
2023/04/12 13:24:59;;;;;;;2.72;0.88;;;;;;;;;;4996401;28;20577;-68
2023/04/12 13:27:24;;;;;;;4.47;1.27;;;;;;;;;;4987790;28;20207;-68
2023/04/12 13:29:49;;;;;;;2.90;0.63;;;;;;;;;;4996306;28;20306;-69
2023/04/12 13:32:16;;;;;;;3.22;0.68;;;;;;;;;;4992858;28;20184;-69
2023/04/12 13:34:41;;;;;;;2.92;0.65;;;;;;;;;;4992781;28;20182;-68
2023/04/12 13:37:06;;;;;;;0.98;0.40;;;;;;;;;;4994370;28;20301;-68
2023/04/12 13:39:33;;;;;;;2.55;0.60;;;;;;;;;;4992446;28;20180;-68
2023/04/12 13:41:58;;;;;;;2.65;0.70;;;;;;;;;;4991142;28;20178;-68
2023/04/12 13:44:26;;;;;;;1.75;0.80;;;;;;;;;;4993794;28;20703;-69
2023/04/12 13:46:51;;;;;;;2.17;0.88;;;;;;;;;;4995330;28;20208;-70
2023/04/12 13:49:16;;;;;;;1.83;0.57;;;;;;;;;;4999312;28;20290;-69
2023/04/12 13:51:41;;;;;;;4.80;0.85;;;;;;;;;;5000363;28;20661;-69
2023/04/12 13:54:06;;;;;;;2.05;0.47;;;;;;;;;;4994618;28;20453;-70
2023/04/12 13:56:32;;;;;;;3.45;0.82;;;;;;;;;;5001079;28;20198;-68
2023/04/12 13:58:57;;;;;;;2.03;0.70;;;;;;;;;;4998641;28;20237;-68
2023/04/12 14:01:24;;;;;;;1.05;0.50;;;;;;;;;;4998526;28;20640;-67
2023/04/12 14:03:49;;;;;;;2.72;0.60;;;;;;;;;;5004087;28;20178;-68
2023/04/12 14:06:14;;;;;;;3.80;0.63;;;;;;;;;;4997306;28;20230;-68
2023/04/12 14:08:40;;;;;;;3.67;0.75;;;;;;;;;;5000923;28;20233;-67
2023/04/12 14:11:06;;;;;;;4.43;1.00;;;;;;;;;;4988103;28;20176;-67
2023/04/12 14:13:31;;;;;;;2.15;0.95;;;;;;;;;;4994526;28;20183;-68
2023/04/12 14:15:56;;;;;;;3.28;0.60;;;;;;;;;;5000297;28;20207;-68
2023/04/12 14:18:22;;;;;;;1.17;0.50;;;;;;;;;;4998642;28;20664;-67
2023/04/12 14:20:51;;;;;;;2.15;0.75;;;;;;;;;;4994766;28;20523;-68
2023/04/12 14:23:16;;;;;;;0.88;0.77;;;;;;;;;;4993551;28;20768;-68
2023/04/12 14:25:41;;;;;;;1.90;0.57;;;;;;;;;;4998404;28;20226;-68
2023/04/12 14:28:07;;;;;;;3.28;0.55;;;;;;;;;;4992508;28;20731;-68
2023/04/12 14:30:32;;;;;;;2.35;0.70;;;;;;;;;;5003482;28;20561;-68
2023/04/12 14:32:57;;;;;;;5.10;1.10;;;;;;;;;;5000478;28;20187;-68
2023/04/12 14:35:22;;;;;;;1.55;0.70;;;;;;;;;;4996911;28;20176;-68
2023/04/12 14:37:48;;;;;;;1.35;0.70;;;;;;;;;;5000414;28;20565;-68